logo
Rechercher aéroport 
image banner adimage banner adimage banner ad
image banner ad

68CA - Lake California Air Park

Situé à Cottonwood, United States

ICAO - 68CA, IATA -

Données fournies par Airmate  

Information générale

Coordonnées: N40°21'40" W122°12'57"
Élévation : 615 feet MSL.
Variation magnétique : 17° East
Voir autres Aéroports à California

Données opérationnelles

Special qualification required
Heure actuelle UTC:
Heure actuelle locale:
Météo à : KRDD - Redding Muni ( 18 km )
METAR: KRDD 130353Z 20003KT 10SM FU HZ CLR 27/09 A2979 RMK AO2 SLP082 T02720089
TAF: KRDD 112320Z 1200/1224 19007KT P6SM BKN200
Voir NOTAMs / SUP AIP / TFR affectant cet aéroport [VIEW]
Fréquences de communication: [VIEW]

Pistes:

Identifiant RWYQFULongueur (ft)Largeur (ft)SurfaceLDA (ft)
14300075ASPH
32300075ASPH

Coordonnées de l'aéroport

Adresse: Cottonwood United States

Vue satellite de 68CA